This is the latest recevied weather packets stored in our database for station/object OE5XFR. If no packets are shown the sender has not sent any weather packets the latest 1 day(s).
| Time | Temp. | Humidity | Pressure | Rain* | Wind** | Luminosity | Snow |
|---|---|---|---|---|---|---|---|
| 1778014635 | 12.22° C | 94% | 1008 hPa | 0 mm | 1.79 m/s, 246° | - | - |
| 1778013915 | 12.22° C | 94% | 1008 hPa | 0 mm | 1.79 m/s, 246° | - | - |
| 1778013195 | 12.78° C | 92% | 1008 hPa | 0 mm | 2.68 m/s, 299° | - | - |
| 1778012475 | 13.33° C | 92% | 1008 hPa | 0 mm | 2.68 m/s, 282° | - | - |
| 1778011754 | 13.33° C | 91% | 1008 hPa | 0 mm | 0.89 m/s, 267° | - | - |
| 1778011035 | 13.33° C | 91% | 1008 hPa | 0 mm | 0.45 m/s, 256° | - | - |
| 1778010314 | 13.89° C | 90% | 1008 hPa | 0 mm | 0.45 m/s, 270° | - | - |
| 1778009594 | 13.89° C | 90% | 1008 hPa | 0 mm | 0.45 m/s, 195° | - | - |
| 1778008874 | 13.89° C | 89% | 1008 hPa | 0 mm | 0.89 m/s, 85° | - | - |
| 1778008155 | 14.44° C | 83% | 1007 hPa | 0 mm | 1.34 m/s, 48° | - | - |
| 1778007434 | 14.44° C | 78% | 1007 hPa | 0 mm | 1.34 m/s, 61° | - | - |
| 1778006714 | 14.44° C | 81% | 1007 hPa | 0 mm | 1.34 m/s, 220° | - | - |
| 1778005994 | 14.44° C | 80% | 1007 hPa | 0 mm | 1.34 m/s, 212° | - | - |
| 1778005275 | 14.44° C | 79% | 1007 hPa | 0 mm | 3.13 m/s, 253° | - | - |
| 1778004555 | 14.44° C | 78% | 1007 hPa | 0 mm | 2.68 m/s, 214° | - | - |
| 1778003834 | 14.44° C | 84% | 1007 hPa | 0.51 mm | 1.79 m/s, 268° | - | - |
| 1778003114 | 14.44° C | 84% | 1007 hPa | 0.51 mm | 1.79 m/s, 268° | - | - |
| 1778002394 | 14.44° C | 87% | 1008 hPa | 0.25 mm | 3.13 m/s, 281° | - | - |
| 1778001674 | 15° C | 74% | 1008 hPa | 0 mm | 6.26 m/s, 260° | - | - |
| 1778000954 | 16.67° C | 59% | 1008 hPa | 0 mm | 10.28 m/s, 253° | - | - |
| 1778000235 | 19.44° C | 44% | 1007 hPa | 0 mm | 9.39 m/s, 241° | - | - |
| 1777999514 | 21.67° C | 35% | 1006 hPa | 0 mm | 9.39 m/s, 251° | - | - |
| 1777998794 | 22.22° C | 28% | 1006 hPa | 0 mm | 1.79 m/s, 100° | - | - |
| 1777998074 | 22.78° C | 27% | 1006 hPa | 0 mm | 2.68 m/s, 132° | - | - |
| 1777997354 | 23.33° C | 27% | 1006 hPa | 0 mm | 1.79 m/s, 76° | - | - |
* Rain latest hour (hover to see other rain measurements)
** Current wind speed in m/s (hover to see current wind gust speed)